createdAt,value
2019-05-19T00:01:26.859Z,94135.27
2019-05-19T00:03:54.214Z,94132.97
2019-05-19T00:06:21.516Z,94131.99
2019-05-19T00:08:48.867Z,94128.17
2019-05-19T00:11:16.146Z,94128.47
2019-05-19T00:13:43.467Z,94136.22
2019-05-19T00:16:10.836Z,94127.26
2019-05-19T00:18:38.154Z,94134.78
2019-05-19T00:21:05.508Z,94135.39
2019-05-19T00:23:32.855Z,94135.27
2019-05-19T00:26:00.117Z,94128.18
2019-05-19T00:28:27.465Z,94123.70
2019-05-19T00:30:54.839Z,94127.25
2019-05-19T00:33:22.165Z,94127.78
2019-05-19T00:35:49.465Z,94133.83
2019-05-19T00:38:16.847Z,94130.26
2019-05-19T00:40:44.145Z,94132.98
2019-05-19T00:43:11.466Z,94132.61
2019-05-19T00:45:38.895Z,94133.59
2019-05-19T00:48:06.185Z,94130.45
2019-05-19T00:50:33.526Z,94125.32
2019-05-19T00:53:00.887Z,94130.05
2019-05-19T00:55:28.281Z,94131.87
2019-05-19T00:57:56.526Z,94135.57
2019-05-19T01:00:23.885Z,94133.67
2019-05-19T01:02:51.305Z,94134.54
2019-05-19T01:05:20.708Z,94133.14
2019-05-19T01:07:47.834Z,94138.34
2019-05-19T01:10:15.119Z,94129.78
2019-05-19T01:12:42.440Z,94129.41
2019-05-19T01:15:10.104Z,94131.22
2019-05-19T01:17:37.448Z,94130.22
2019-05-19T01:20:05.036Z,94125.23
2019-05-19T01:22:32.406Z,94126.58
2019-05-19T01:24:59.722Z,94133.80
2019-05-19T01:27:27.055Z,94131.64
2019-05-19T01:29:54.415Z,94132.07
2019-05-19T01:32:21.716Z,94126.48
2019-05-19T01:34:49.133Z,94137.56
2019-05-19T01:37:16.436Z,94137.91
2019-05-19T01:39:43.769Z,94135.84
2019-05-19T01:42:11.063Z,94138.98
2019-05-19T01:44:38.405Z,94129.89
2019-05-19T01:47:05.752Z,94130.05
2019-05-19T01:49:33.085Z,94123.20
2019-05-19T01:52:00.409Z,94128.50
2019-05-19T01:54:27.725Z,94125.99
2019-05-19T01:56:55.013Z,94128.82
2019-05-19T01:59:22.379Z,94132.59
2019-05-19T02:01:50.889Z,94128.69
2019-05-19T02:04:18.291Z,94121.12
2019-05-19T02:06:45.709Z,94117.62
2019-05-19T02:09:13.017Z,94119.33
2019-05-19T02:11:40.329Z,94116.31
2019-05-19T02:14:07.685Z,94124.98
2019-05-19T02:16:34.983Z,94119.10
2019-05-19T02:19:02.486Z,94120.84
2019-05-19T02:21:29.925Z,94122.20
2019-05-19T02:23:57.235Z,94120.92
2019-05-19T02:26:24.549Z,94131.13
2019-05-19T02:28:51.888Z,94127.04
2019-05-19T02:31:19.221Z,94131.13
2019-05-19T02:33:46.579Z,94126.07
2019-05-19T02:36:13.975Z,94129.42
2019-05-19T02:38:41.310Z,94130.39
2019-05-19T02:41:09.649Z,94129.43
2019-05-19T02:43:37.417Z,94130.64
2019-05-19T02:46:05.030Z,94127.08
2019-05-19T02:48:32.966Z,94127.78
2019-05-19T02:51:01.661Z,94138.91
2019-05-19T02:53:30.595Z,94125.71
2019-05-19T02:55:59.727Z,94125.98
2019-05-19T02:58:27.165Z,94128.33
2019-05-19T03:00:54.526Z,94126.71
2019-05-19T03:03:21.809Z,94120.02
2019-05-19T03:05:49.123Z,94119.64
2019-05-19T03:08:16.445Z,94123.42
2019-05-19T03:10:44.046Z,94124.14
2019-05-19T03:13:11.394Z,94127.61
2019-05-19T03:15:38.714Z,94120.88
2019-05-19T03:18:06.151Z,94121.25
2019-05-19T03:20:33.530Z,94121.72
2019-05-19T03:23:00.845Z,94129.11
2019-05-19T03:25:28.145Z,94120.38
2019-05-19T03:27:55.666Z,94118.65
2019-05-19T03:30:31.953Z,94118.05
2019-05-19T03:33:00.900Z,94116.47
2019-05-19T03:35:28.277Z,94127.87
2019-05-19T03:37:55.595Z,94128.94
2019-05-19T03:40:22.937Z,94132.36
2019-05-19T03:42:50.600Z,94137.03
2019-05-19T03:45:17.922Z,94134.05
2019-05-19T03:47:45.326Z,94130.63
2019-05-19T03:50:12.646Z,94132.54
2019-05-19T03:52:39.967Z,94132.84
2019-05-19T03:55:07.305Z,94134.20
2019-05-19T03:57:34.626Z,94128.89
2019-05-19T04:00:02.205Z,94130.48
2019-05-19T04:02:29.778Z,94126.73
2019-05-19T04:04:57.256Z,94133.14
2019-05-19T04:07:24.799Z,94137.94
2019-05-19T04:09:52.212Z,94141.60
2019-05-19T04:12:19.523Z,94134.33
2019-05-19T04:14:46.849Z,94142.10
2019-05-19T04:17:14.318Z,94140.22
2019-05-19T04:19:41.667Z,94136.76
2019-05-19T04:22:09.007Z,94133.96
2019-05-19T04:24:39.982Z,94137.44
2019-05-19T04:27:07.285Z,94138.82
2019-05-19T04:29:34.613Z,94138.84
2019-05-19T04:32:01.960Z,94128.72
2019-05-19T04:34:29.267Z,94132.16
2019-05-19T04:36:56.576Z,94134.67
2019-05-19T04:39:23.887Z,94127.59
2019-05-19T04:41:51.201Z,94131.67
2019-05-19T04:44:18.534Z,94137.63
2019-05-19T04:46:45.927Z,94133.27
2019-05-19T04:49:13.285Z,94130.56
2019-05-19T04:51:40.604Z,94129.26
2019-05-19T04:54:07.947Z,94134.64
2019-05-19T04:56:35.272Z,94134.69
2019-05-19T04:59:02.603Z,94134.20
2019-05-19T05:01:29.988Z,94132.70
2019-05-19T05:03:57.290Z,94137.83
2019-05-19T05:06:24.710Z,94140.61
2019-05-19T05:08:52.106Z,94131.53
2019-05-19T05:11:19.414Z,94145.86
2019-05-19T05:13:46.759Z,94133.83
2019-05-19T05:16:14.149Z,94131.49
2019-05-19T05:18:41.597Z,94121.12
2019-05-19T05:21:09.112Z,94119.80
2019-05-19T05:23:36.520Z,94120.36
2019-05-19T05:26:03.839Z,94123.48
2019-05-19T05:28:31.226Z,94125.16
2019-05-19T05:30:58.637Z,94119.38
2019-05-19T05:33:26.000Z,94119.88
2019-05-19T05:35:53.287Z,94118.82
2019-05-19T05:38:20.634Z,94113.66
2019-05-19T05:40:47.941Z,94114.19
2019-05-19T05:43:15.267Z,94111.01
2019-05-19T05:45:42.654Z,94110.45
2019-05-19T05:48:10.022Z,94112.93
2019-05-19T05:50:37.318Z,94108.40
2019-05-19T05:53:04.691Z,94107.70
2019-05-19T05:55:32.027Z,94105.96
2019-05-19T05:57:59.347Z,94100.69
2019-05-19T06:00:26.709Z,94097.72
2019-05-19T06:02:54.032Z,94097.58
2019-05-19T06:05:21.336Z,94097.41
2019-05-19T06:07:48.718Z,94100.52
2019-05-19T06:10:16.205Z,94102.31
2019-05-19T06:12:43.609Z,94097.91
2019-05-19T06:15:11.628Z,94107.26
2019-05-19T06:17:38.926Z,94100.69
2019-05-19T06:20:07.244Z,94102.50
2019-05-19T06:22:35.127Z,94094.27
2019-05-19T06:25:02.525Z,94102.16
2019-05-19T06:27:39.318Z,94099.72
2019-05-19T06:30:08.892Z,94098.22
2019-05-19T06:32:45.785Z,94097.87
2019-05-19T06:35:13.902Z,94104.44
2019-05-19T06:37:41.206Z,94093.72
2019-05-19T06:40:08.642Z,94103.22
2019-05-19T06:42:36.017Z,94091.70
2019-05-19T06:45:05.227Z,94089.04
2019-05-19T06:47:32.547Z,94087.20
2019-05-19T06:49:59.965Z,94087.48
2019-05-19T06:52:27.301Z,94079.55
2019-05-19T06:54:54.623Z,94075.55
2019-05-19T06:57:21.969Z,94073.45
2019-05-19T06:59:49.312Z,94072.53
2019-05-19T07:02:16.671Z,94073.19
2019-05-19T07:04:44.290Z,94065.86
2019-05-19T07:07:11.653Z,94055.46
2019-05-19T07:09:38.974Z,94061.69
2019-05-19T07:12:06.349Z,94059.65
2019-05-19T07:14:33.942Z,94057.85
2019-05-19T07:17:01.241Z,94057.14
2019-05-19T07:19:28.584Z,94048.61
2019-05-19T07:21:55.895Z,94053.60
2019-05-19T07:24:23.259Z,94050.05
2019-05-19T07:26:50.689Z,94049.69
2019-05-19T07:29:18.046Z,94048.56
2019-05-19T07:31:45.390Z,94040.82
2019-05-19T07:34:12.767Z,94043.26
2019-05-19T07:36:40.088Z,94042.85
2019-05-19T07:39:07.547Z,94038.41
2019-05-19T07:41:34.944Z,94036.31
2019-05-19T07:44:02.481Z,94036.67
2019-05-19T07:46:29.854Z,94029.34
2019-05-19T07:48:57.227Z,94027.58
2019-05-19T07:51:24.531Z,94023.05
2019-05-19T07:53:52.017Z,94024.07
2019-05-19T07:56:19.647Z,94023.00
2019-05-19T07:58:46.987Z,94011.64
2019-05-19T08:01:14.269Z,94010.14
2019-05-19T08:03:41.659Z,94007.48
2019-05-19T08:06:09.046Z,94001.64
2019-05-19T08:08:36.446Z,94002.58
2019-05-19T08:11:03.842Z,94003.37
2019-05-19T08:13:31.225Z,94005.38
2019-05-19T08:15:58.554Z,94006.28
2019-05-19T08:18:25.931Z,93994.44
2019-05-19T08:20:53.246Z,93999.15
2019-05-19T08:23:20.650Z,94000.51
2019-05-19T08:25:48.024Z,94005.16
2019-05-19T08:28:15.346Z,94004.23
2019-05-19T08:30:42.715Z,93999.55
2019-05-19T08:33:10.388Z,93997.20
2019-05-19T08:35:37.720Z,94011.98
2019-05-19T08:38:05.183Z,94009.95
2019-05-19T08:40:32.565Z,94001.33
2019-05-19T08:42:59.870Z,93997.44
2019-05-19T08:45:27.259Z,93992.86
2019-05-19T08:47:54.801Z,93991.91
2019-05-19T08:50:22.134Z,93988.54
2019-05-19T08:52:49.490Z,93991.80
2019-05-19T08:55:17.009Z,93984.94
2019-05-19T08:57:44.376Z,93986.42
2019-05-19T09:00:11.833Z,93976.91
2019-05-19T09:02:39.239Z,93981.80
2019-05-19T09:05:06.798Z,93978.37
2019-05-19T09:07:34.149Z,93979.19
2019-05-19T09:10:01.571Z,93974.80
2019-05-19T09:12:28.937Z,93975.38
2019-05-19T09:14:56.292Z,93974.01
2019-05-19T09:17:23.702Z,93964.23
2019-05-19T09:19:51.099Z,93970.16
2019-05-19T09:22:18.619Z,93966.81
2019-05-19T09:24:46.023Z,93969.56
2019-05-19T09:27:13.413Z,93965.69
2019-05-19T09:29:42.402Z,93962.93
2019-05-19T09:32:14.021Z,93955.58
2019-05-19T09:34:45.847Z,93953.95
2019-05-19T09:37:13.304Z,93954.52
2019-05-19T09:39:40.770Z,93956.36
2019-05-19T09:42:08.127Z,93951.66
2019-05-19T09:44:35.481Z,93952.80
2019-05-19T09:47:02.960Z,93948.69
2019-05-19T09:49:33.537Z,93942.28
2019-05-19T09:52:02.811Z,93939.09
2019-05-19T09:54:42.733Z,93938.52
2019-05-19T09:56:59.900Z,93931.83
2019-05-19T09:59:27.531Z,93931.61
2019-05-19T10:01:55.010Z,93929.06
2019-05-19T10:04:22.386Z,93928.41
2019-05-19T10:06:49.802Z,93923.99
2019-05-19T10:09:49.010Z,93923.02
2019-05-19T10:12:17.461Z,93918.50
2019-05-19T10:14:44.832Z,93914.33
2019-05-19T10:17:12.370Z,93908.41
2019-05-19T10:19:39.730Z,93903.32
2019-05-19T10:22:07.110Z,93906.15
2019-05-19T10:24:34.562Z,93896.72
2019-05-19T10:27:01.908Z,93890.85
2019-05-19T10:29:29.310Z,93898.85
2019-05-19T10:31:56.629Z,93894.80
2019-05-19T10:34:23.991Z,93886.28
2019-05-19T10:36:51.362Z,93887.89
2019-05-19T10:39:19.890Z,93885.85
2019-05-19T10:41:47.318Z,93884.94
2019-05-19T10:44:14.644Z,93886.52
2019-05-19T10:46:42.122Z,93878.80
2019-05-19T10:49:09.494Z,93873.61
2019-05-19T10:51:36.825Z,93875.91
2019-05-19T10:54:04.334Z,93863.09
2019-05-19T10:56:31.640Z,93857.03
2019-05-19T10:58:58.990Z,93858.36
2019-05-19T11:01:26.526Z,93863.09
2019-05-19T11:03:53.994Z,93858.78
2019-05-19T11:06:21.317Z,93852.81
2019-05-19T11:08:48.690Z,93842.95
2019-05-19T11:11:16.323Z,93840.95
2019-05-19T11:13:43.665Z,93847.95
2019-05-19T11:16:11.059Z,93839.17
2019-05-19T11:18:38.389Z,93832.07
2019-05-19T11:21:05.768Z,93832.42
2019-05-19T11:23:33.262Z,93829.75
2019-05-19T11:26:00.708Z,93827.77
2019-05-19T11:28:28.163Z,93826.22
2019-05-19T11:30:55.803Z,93821.45
2019-05-19T11:33:23.230Z,93818.10
2019-05-19T11:35:50.750Z,93819.91
2019-05-19T11:38:18.135Z,93810.33
2019-05-19T11:40:45.472Z,93814.69
2019-05-19T11:43:12.855Z,93807.38
2019-05-19T11:45:40.292Z,93811.08
2019-05-19T11:48:07.693Z,93808.54
2019-05-19T11:50:35.245Z,93809.45
2019-05-19T11:53:02.632Z,93810.69
2019-05-19T11:55:30.084Z,93806.98
2019-05-19T11:57:57.568Z,93804.32
2019-05-19T12:00:25.087Z,93805.94
2019-05-19T12:02:52.550Z,93802.09
2019-05-19T12:05:20.341Z,93802.13
2019-05-19T12:07:47.767Z,93805.15
2019-05-19T12:10:15.254Z,93806.80
2019-05-19T12:12:42.655Z,93806.09
2019-05-19T12:15:10.583Z,93802.77
2019-05-19T12:17:38.194Z,93805.41
2019-05-19T12:20:06.355Z,93795.49
2019-05-19T12:22:33.881Z,93798.80
2019-05-19T12:25:01.288Z,93804.07
2019-05-19T12:27:28.690Z,93799.16
2019-05-19T12:29:56.087Z,93797.91
2019-05-19T12:32:23.478Z,93794.84
2019-05-19T12:34:50.790Z,93792.13
2019-05-19T12:37:18.281Z,93795.69
2019-05-19T12:39:45.642Z,93789.25
2019-05-19T12:42:12.983Z,93786.21
2019-05-19T12:44:40.378Z,93779.63
2019-05-19T12:47:07.790Z,93779.13
2019-05-19T12:49:35.114Z,93784.56
2019-05-19T12:52:02.626Z,93777.18
2019-05-19T12:54:30.005Z,93780.12
2019-05-19T12:56:57.363Z,93774.83
2019-05-19T12:59:24.799Z,93773.64
2019-05-19T13:01:52.146Z,93764.86
2019-05-19T13:04:19.527Z,93772.85
2019-05-19T13:06:46.962Z,93764.67
2019-05-19T13:09:14.625Z,93758.74
2019-05-19T13:11:41.963Z,93753.48
2019-05-19T13:14:09.372Z,93749.58
2019-05-19T13:16:36.778Z,93749.88
2019-05-19T13:19:04.150Z,93745.58
2019-05-19T13:21:31.634Z,93747.44
2019-05-19T13:23:58.993Z,93750.52
2019-05-19T13:26:26.394Z,93753.74
2019-05-19T13:28:53.856Z,93765.87
2019-05-19T13:31:21.282Z,93767.47
2019-05-19T13:33:48.686Z,93767.61
2019-05-19T13:36:16.077Z,93760.54
2019-05-19T13:38:43.481Z,93764.36
2019-05-19T13:41:10.850Z,93751.59
2019-05-19T13:43:38.253Z,93754.89
2019-05-19T13:46:05.606Z,93751.32
2019-05-19T13:48:32.968Z,93744.95
2019-05-19T13:51:00.401Z,93743.03
2019-05-19T13:53:28.156Z,93743.42
2019-05-19T13:55:55.569Z,93747.34
2019-05-19T13:58:23.035Z,93744.82
2019-05-19T14:00:50.348Z,93744.05
2019-05-19T14:03:17.728Z,93741.93
2019-05-19T14:05:45.143Z,93742.09
2019-05-19T14:08:12.835Z,93739.14
2019-05-19T14:10:40.198Z,93741.54
2019-05-19T14:13:07.673Z,93736.80
2019-05-19T14:15:35.288Z,93736.37
2019-05-19T14:18:02.821Z,93734.40
2019-05-19T14:20:30.259Z,93729.27
2019-05-19T14:22:57.667Z,93724.45
2019-05-19T14:25:25.107Z,93726.22
2019-05-19T14:27:55.697Z,93719.37
2019-05-19T14:30:24.296Z,93716.77
2019-05-19T14:32:57.743Z,93716.03
2019-05-19T14:35:26.856Z,93720.80
2019-05-19T14:37:54.362Z,93728.05
2019-05-19T14:40:23.226Z,93729.64
2019-05-19T14:42:55.230Z,93736.94
2019-05-19T14:45:24.204Z,93725.93
2019-05-19T14:50:39.870Z,93733.19
2019-05-19T14:53:07.832Z,93740.73
2019-05-19T14:55:37.915Z,93736.54
2019-05-19T14:58:07.289Z,93732.47
2019-05-19T15:00:52.810Z,93742.16
2019-05-19T15:03:20.830Z,93741.54
2019-05-19T15:05:48.293Z,93749.02
2019-05-19T15:08:16.993Z,93755.31
2019-05-19T15:10:44.406Z,93770.74
2019-05-19T15:13:11.942Z,93780.33
2019-05-19T15:15:39.374Z,93790.23
2019-05-19T15:18:06.897Z,93789.86
2019-05-19T15:20:34.853Z,93794.30
2019-05-19T15:23:05.786Z,93824.08
2019-05-19T15:25:33.651Z,93832.77
2019-05-19T15:28:05.206Z,93831.59
2019-05-19T15:30:31.347Z,93840.92
2019-05-19T15:32:59.957Z,93836.60
2019-05-19T15:35:29.561Z,93852.75
2019-05-19T15:37:57.028Z,93854.86
2019-05-19T15:40:25.044Z,93868.16
2019-05-19T15:42:54.786Z,93877.82
2019-05-19T15:45:22.435Z,93889.63
2019-05-19T15:47:49.903Z,93894.72
2019-05-19T15:50:19.059Z,93902.52
2019-05-19T15:52:51.421Z,93893.55
2019-05-19T15:55:23.716Z,93901.63
2019-05-19T15:57:52.336Z,93910.42
2019-05-19T16:00:21.932Z,93904.44
2019-05-19T16:02:52.994Z,93913.06
2019-05-19T16:05:23.611Z,93920.37
2019-05-19T16:07:58.607Z,93925.06
2019-05-19T16:10:26.636Z,93941.11
2019-05-19T16:12:54.864Z,93942.70
2019-05-19T16:15:23.883Z,93951.30
2019-05-19T16:17:53.673Z,93945.80
2019-05-19T16:20:21.855Z,93948.92
2019-05-19T16:22:49.476Z,93943.91
2019-05-19T16:25:16.974Z,93934.96
2019-05-19T16:27:47.086Z,93946.04
2019-05-19T16:30:15.246Z,93942.70
2019-05-19T16:32:46.154Z,93943.84
2019-05-19T16:35:13.757Z,93942.02
2019-05-19T16:37:41.777Z,93938.56
2019-05-19T16:40:09.343Z,93937.25
2019-05-19T16:42:37.296Z,93941.69
2019-05-19T16:45:05.751Z,93931.72
2019-05-19T16:47:33.221Z,93926.59
2019-05-19T16:50:11.585Z,93932.41
2019-05-19T16:52:39.913Z,93938.20
2019-05-19T16:55:25.674Z,93934.45
2019-05-19T16:57:54.197Z,93941.10
2019-05-19T17:00:23.103Z,93937.85
2019-05-19T17:02:54.806Z,93942.63
2019-05-19T17:05:31.013Z,93951.77
2019-05-19T17:07:59.223Z,93949.22
2019-05-19T17:10:31.625Z,93945.19
2019-05-19T17:12:59.210Z,93956.34
2019-05-19T17:15:27.930Z,93957.14
2019-05-19T17:17:55.519Z,93966.03
2019-05-19T17:20:24.091Z,93961.53
2019-05-19T17:22:52.035Z,93959.13
2019-05-19T17:25:23.163Z,93958.88
2019-05-19T17:27:51.246Z,93953.48
2019-05-19T17:30:21.085Z,93947.48
2019-05-19T17:32:49.210Z,93948.92
2019-05-19T17:35:17.057Z,93951.17
2019-05-19T17:37:45.826Z,93953.02
2019-05-19T17:40:13.745Z,93944.16
2019-05-19T17:42:41.553Z,93951.42
2019-05-19T17:45:12.173Z,93946.83
2019-05-19T17:47:39.715Z,93947.20
2019-05-19T17:50:07.530Z,93942.55
2019-05-19T17:52:36.349Z,93948.98
2019-05-19T17:55:04.885Z,93940.71
2019-05-19T17:57:33.627Z,93945.58
2019-05-19T18:00:02.880Z,93953.20
2019-05-19T18:02:30.987Z,93957.58
2019-05-19T18:05:00.775Z,93954.86
2019-05-19T18:07:30.736Z,93954.72
2019-05-19T18:10:00.854Z,93958.66
2019-05-19T18:12:28.269Z,93962.64
2019-05-19T18:14:57.066Z,93954.18
2019-05-19T18:17:26.288Z,93955.78
2019-05-19T18:20:22.717Z,93958.10
2019-05-19T18:22:43.122Z,93959.29
2019-05-19T18:25:12.109Z,93960.56
2019-05-19T18:27:40.756Z,93961.13
2019-05-19T18:30:13.545Z,93959.63
2019-05-19T18:32:41.750Z,93956.20
2019-05-19T18:35:23.355Z,93964.48
2019-05-19T18:37:51.818Z,93962.01
2019-05-19T18:40:21.032Z,93964.87
2019-05-19T18:42:50.128Z,93966.34
2019-05-19T18:45:20.983Z,93961.24
2019-05-19T18:47:50.379Z,93969.43
2019-05-19T18:50:20.577Z,93965.11
2019-05-19T18:52:53.321Z,93963.70
2019-05-19T18:55:22.314Z,93969.48
2019-05-19T18:57:53.859Z,93976.89
2019-05-19T19:00:37.709Z,93979.41
2019-05-19T19:03:13.178Z,93971.94
2019-05-19T19:05:41.701Z,93975.66
2019-05-19T19:08:10.029Z,93980.05
2019-05-19T19:10:40.859Z,93977.67
2019-05-19T19:13:09.396Z,93983.23
2019-05-19T19:15:41.154Z,93988.63
2019-05-19T19:20:58.323Z,93993.42
2019-05-19T19:23:26.551Z,93991.09
2019-05-19T19:25:55.369Z,93994.47
2019-05-19T19:28:33.550Z,94001.16
2019-05-19T19:31:01.223Z,93990.95
2019-05-19T19:33:29.543Z,93996.75
2019-05-19T19:35:57.293Z,93999.54
2019-05-19T19:38:25.061Z,94001.10
2019-05-19T19:40:58.072Z,93999.39
2019-05-19T19:43:29.355Z,93995.13
2019-05-19T19:45:58.148Z,94003.61
2019-05-19T19:48:35.108Z,93998.12
2019-05-19T19:51:03.901Z,93998.42
2019-05-19T19:53:31.567Z,94000.01
2019-05-19T19:56:04.233Z,94005.19
2019-05-19T19:58:33.107Z,93996.22
2019-05-19T20:01:05.492Z,94001.38
2019-05-19T20:03:39.792Z,93994.56
2019-05-19T20:06:08.815Z,94002.69
2019-05-19T20:08:37.054Z,93996.63
2019-05-19T20:11:07.298Z,93996.60
2019-05-19T20:13:44.771Z,94001.25
2019-05-19T20:16:16.092Z,94003.97
2019-05-19T20:18:44.329Z,94003.70
2019-05-19T20:21:13.045Z,94000.30
2019-05-19T20:23:45.285Z,93997.48
2019-05-19T20:26:15.146Z,93997.44
2019-05-19T20:28:42.978Z,93993.25
2019-05-19T20:31:10.741Z,93991.17
2019-05-19T20:33:39.625Z,93995.06
2019-05-19T20:36:07.612Z,93990.39
2019-05-19T20:38:35.042Z,93985.56
2019-05-19T20:41:04.991Z,93993.16
2019-05-19T20:43:32.474Z,93990.67
2019-05-19T20:45:59.942Z,93989.75
2019-05-19T20:48:33.900Z,93987.48
2019-05-19T20:51:01.287Z,93990.66
2019-05-19T20:53:28.689Z,93994.42
2019-05-19T20:55:56.147Z,93994.98
2019-05-19T20:58:23.648Z,93996.47
2019-05-19T21:00:51.976Z,93999.43
2019-05-19T21:03:19.575Z,93992.28
2019-05-19T21:05:46.946Z,93990.47
2019-05-19T21:08:20.201Z,93994.63
2019-05-19T21:10:47.723Z,93988.08
2019-05-19T21:13:15.080Z,93996.65
2019-05-19T21:15:42.545Z,93988.90
2019-05-19T21:18:10.005Z,94002.77
2019-05-19T21:20:37.465Z,93990.83
2019-05-19T21:23:04.800Z,93996.94
2019-05-19T21:25:34.696Z,93995.77
2019-05-19T21:28:02.107Z,93997.44
2019-05-19T21:30:29.461Z,94000.77
2019-05-19T21:32:56.881Z,93992.67
2019-05-19T21:35:24.317Z,94003.91
2019-05-19T21:37:51.713Z,93991.23
2019-05-19T21:40:19.103Z,93994.54
2019-05-19T21:42:46.397Z,93994.84
2019-05-19T21:45:13.905Z,93991.56
2019-05-19T21:47:41.244Z,93991.00
2019-05-19T21:50:08.894Z,93994.28
2019-05-19T21:52:36.205Z,93998.76
2019-05-19T21:55:04.329Z,93997.20
2019-05-19T21:57:31.647Z,93999.41
2019-05-19T21:59:58.980Z,94003.67
2019-05-19T22:02:26.456Z,93996.70
2019-05-19T22:04:53.802Z,94000.36
2019-05-19T22:07:34.813Z,94005.59
2019-05-19T22:10:02.201Z,94006.73
2019-05-19T22:12:29.565Z,94008.88
2019-05-19T22:14:56.941Z,94007.95
2019-05-19T22:17:24.302Z,94008.64
2019-05-19T22:19:51.669Z,94001.86
2019-05-19T22:22:19.109Z,94000.02
2019-05-19T22:24:46.434Z,94003.28
2019-05-19T22:27:13.772Z,94004.84
2019-05-19T22:29:41.105Z,94007.45
2019-05-19T22:32:08.434Z,94009.69
2019-05-19T22:34:35.772Z,94000.51
2019-05-19T22:37:03.166Z,94000.54
2019-05-19T22:39:30.486Z,94005.03
2019-05-19T22:41:57.843Z,94002.67
2019-05-19T22:44:25.207Z,94007.18
2019-05-19T22:46:52.569Z,94001.94
2019-05-19T22:49:19.918Z,93998.27
2019-05-19T22:51:47.288Z,94003.19
2019-05-19T22:54:14.685Z,94001.64
2019-05-19T22:56:42.010Z,93998.57
2019-05-19T22:59:19.284Z,93999.61
2019-05-19T23:01:50.973Z,93997.69
2019-05-19T23:04:07.822Z,94003.48
2019-05-19T23:06:35.173Z,94005.67
2019-05-19T23:09:03.945Z,94010.26
2019-05-19T23:11:31.247Z,94003.28
2019-05-19T23:13:58.609Z,94001.20
2019-05-19T23:16:25.985Z,94001.03
2019-05-19T23:18:53.311Z,94012.84
2019-05-19T23:21:20.687Z,94009.43
2019-05-19T23:23:48.007Z,94003.78
2019-05-19T23:26:15.323Z,94009.91
2019-05-19T23:28:42.687Z,94013.25
2019-05-19T23:31:10.058Z,94014.06
2019-05-19T23:33:37.369Z,94011.06
2019-05-19T23:36:04.757Z,94006.30
2019-05-19T23:38:32.127Z,94004.29
2019-05-19T23:40:59.440Z,94008.73
2019-05-19T23:43:26.802Z,94006.23
2019-05-19T23:45:54.105Z,94011.09
2019-05-19T23:48:21.416Z,94004.18
2019-05-19T23:50:48.827Z,94000.71
2019-05-19T23:53:16.146Z,94008.28
2019-05-19T23:55:43.467Z,94007.33
2019-05-19T23:58:10.829Z,94000.91
